CheckWX is a tool to help pilots better visualize weather data.  It is not intended as a substitute for an official pre-flight weather briefing.

06:45:58 UTC

KJWY METAR
Mid-Way Regional Airport
Midlothian/Waxahachie, Texas, USA
Current

11 mins ago

KJWY 210635Z AUTO 15016G26KT 10SM OVC027 24/21 A2956 RMK AO2 T02440207
Observed
May-21 @ 06:35 UTC
Wind
  • 150° at 16 KTS
  • Gusting to 26 KTS
Visibility
10 SM
Flight Rules
MVFR
Cloud Levels
  • Overcast at 2,700' AGL
Temperature
24°C / 75°F
Dewpoint
21°C / 70°F
Humidity
83%
Altimeter
29.56" Hg
Pressure
1001.02 hPa
Previous

31 mins ago

KJWY 210615Z AUTO 15016G27KT 10SM OVC025 25/21 A2957 RMK AO2 T02450207
Observed
May-21 @ 06:15 UTC
Wind
  • 150° at 16 KTS
  • Gusting to 27 KTS
Visibility
10 SM
Flight Rules
MVFR
Cloud Levels
  • Overcast at 2,500' AGL
Temperature
25°C / 77°F
Dewpoint
21°C / 70°F
Humidity
79%
Altimeter
29.57" Hg
Pressure
1001.32 hPa
Previous

51 mins ago

KJWY 210555Z AUTO 15018G23KT 10SM OVC025 25/21 A2959 RMK AO2 T02450206 10289 20245 403080211
Observed
May-21 @ 05:55 UTC
Wind
  • 150° at 18 KTS
  • Gusting to 23 KTS
Visibility
10 SM
Flight Rules
MVFR
Cloud Levels
  • Overcast at 2,500' AGL
Temperature
25°C / 77°F
Dewpoint
21°C / 70°F
Humidity
79%
Altimeter
29.59" Hg
Pressure
1002.02 hPa